createdAt,value
2023-04-13T00:01:35.793Z,0.83
2023-04-13T00:04:07.145Z,1.20
2023-04-13T00:06:35.234Z,1.10
2023-04-13T00:09:03.841Z,2.27
2023-04-13T00:11:34.652Z,2.77
2023-04-13T00:14:04.029Z,1.30
2023-04-13T00:16:32.930Z,2.40
2023-04-13T00:19:05.156Z,1.70
2023-04-13T00:21:38.412Z,1.37
2023-04-13T00:24:11.165Z,2.63
2023-04-13T00:26:39.101Z,0.77
2023-04-13T00:29:10.115Z,1.90
2023-04-13T00:31:43.162Z,2.23
2023-04-13T00:34:14.620Z,3.80
2023-04-13T00:36:46.402Z,1.77
2023-04-13T00:39:18.498Z,1.53
2023-04-13T00:41:50.418Z,2.57
2023-04-13T00:44:20.664Z,1.13
2023-04-13T00:46:54.737Z,1.07
2023-04-13T00:49:26.379Z,2.17
2023-04-13T00:51:58.368Z,1.90
2023-04-13T00:54:31.554Z,2.27
2023-04-13T00:57:03.797Z,1.00
2023-04-13T00:59:35.854Z,0.90
2023-04-13T01:04:49.783Z,1.07
2023-04-13T01:07:41.127Z,1.90
2023-04-13T01:10:27.592Z,0.90
2023-04-13T01:13:20.830Z,2.83
2023-04-13T01:16:03.057Z,1.10
2023-04-13T01:18:41.318Z,1.10
2023-04-13T01:21:13.269Z,1.50
2023-04-13T01:24:04.409Z,1.13
2023-04-13T01:27:03.025Z,0.83
2023-04-13T01:29:41.381Z,2.10
2023-04-13T01:32:17.235Z,1.30
2023-04-13T01:34:47.267Z,0.50
2023-04-13T01:37:18.120Z,1.13
2023-04-13T01:39:49.640Z,2.40
2023-04-13T01:42:20.786Z,1.40
2023-04-13T01:44:51.915Z,2.50
2023-04-13T01:50:25.007Z,1.17
2023-04-13T01:53:02.858Z,0.60
2023-04-13T01:55:33.783Z,1.27
2023-04-13T01:58:07.238Z,1.27
2023-04-13T02:00:40.447Z,0.80
2023-04-13T02:03:15.613Z,1.50
2023-04-13T02:05:47.223Z,1.27
2023-04-13T02:08:17.942Z,1.73
2023-04-13T02:10:49.245Z,1.13
2023-04-13T02:13:21.798Z,0.77
2023-04-13T02:15:52.731Z,0.77
2023-04-13T02:18:23.169Z,2.07
2023-04-13T02:21:13.305Z,1.83
2023-04-13T02:23:44.171Z,1.63
2023-04-13T02:26:15.751Z,1.80
2023-04-13T02:28:43.064Z,1.43
2023-04-13T02:31:12.337Z,1.47
2023-04-13T02:36:37.193Z,1.83
2023-04-13T02:39:08.388Z,1.77
2023-04-13T02:41:39.484Z,1.30
2023-04-13T02:44:14.284Z,1.07
2023-04-13T02:46:44.314Z,1.00
2023-04-13T02:49:13.298Z,2.10
2023-04-13T02:51:43.306Z,1.53
2023-04-13T02:54:14.234Z,1.53
2023-04-13T02:56:45.941Z,1.10
2023-04-13T02:59:18.881Z,1.33
2023-04-13T03:01:55.511Z,1.17
2023-04-13T03:04:27.941Z,2.73
2023-04-13T03:06:59.752Z,1.30
2023-04-13T03:09:32.254Z,1.50
2023-04-13T03:12:05.842Z,1.07
2023-04-13T03:14:36.966Z,1.30
2023-04-13T03:17:07.942Z,2.00
2023-04-13T03:19:39.543Z,1.10
2023-04-13T03:22:10.267Z,0.90
2023-04-13T03:24:40.076Z,1.00
2023-04-13T03:27:11.701Z,1.20
2023-04-13T03:29:51.432Z,0.90
2023-04-13T03:32:22.518Z,0.73
2023-04-13T03:34:53.678Z,1.43
2023-04-13T03:37:25.028Z,1.13
2023-04-13T03:39:56.656Z,2.53
2023-04-13T03:42:28.989Z,1.70
2023-04-13T03:44:56.887Z,1.73
2023-04-13T03:47:26.811Z,0.73
2023-04-13T03:49:56.917Z,1.10
2023-04-13T03:52:27.318Z,1.67
2023-04-13T03:54:58.570Z,1.17
2023-04-13T03:57:30.199Z,1.17
2023-04-13T03:59:59.441Z,1.63
2023-04-13T04:02:29.512Z,1.37
2023-04-13T04:05:06.907Z,2.07
2023-04-13T04:07:41.420Z,1.50
2023-04-13T04:10:12.937Z,2.03
2023-04-13T04:12:41.270Z,1.00
2023-04-13T04:15:11.923Z,1.50
2023-04-13T04:17:42.612Z,2.30
2023-04-13T04:20:13.107Z,1.67
2023-04-13T04:22:42.787Z,1.60
2023-04-13T04:25:15.428Z,0.63
2023-04-13T04:27:51.587Z,1.63
2023-04-13T04:30:24.291Z,2.30
2023-04-13T04:32:59.756Z,1.53
2023-04-13T04:38:44.174Z,1.07
2023-04-13T04:41:16.356Z,1.10
2023-04-13T04:43:47.207Z,1.40
2023-04-13T04:46:17.976Z,0.77
2023-04-13T04:48:50.113Z,0.80
2023-04-13T04:51:20.337Z,1.60
2023-04-13T04:53:51.498Z,0.40
2023-04-13T04:56:23.174Z,1.13
2023-04-13T04:58:54.512Z,1.63
2023-04-13T05:01:27.265Z,1.37
2023-04-13T05:03:58.107Z,1.87
2023-04-13T05:06:34.958Z,1.10
2023-04-13T05:09:20.206Z,3.07
2023-04-13T05:11:47.107Z,2.17
2023-04-13T05:14:17.365Z,2.03
2023-04-13T05:16:48.899Z,5.87
2023-04-13T05:19:18.193Z,11.53
2023-04-13T05:21:48.880Z,10.97
2023-04-13T05:24:18.717Z,11.00
2023-04-13T05:26:48.498Z,9.30
2023-04-13T05:29:20.346Z,6.87
2023-04-13T05:31:50.819Z,7.40
2023-04-13T05:34:20.653Z,9.37
2023-04-13T05:36:50.727Z,10.37
2023-04-13T05:39:22.484Z,8.07
2023-04-13T05:41:54.402Z,9.23
2023-04-13T05:44:22.484Z,5.70
2023-04-13T05:46:57.204Z,6.93
2023-04-13T05:49:29.892Z,9.67
2023-04-13T05:52:01.200Z,12.07
2023-04-13T05:54:32.724Z,7.13
2023-04-13T05:57:02.631Z,6.37
2023-04-13T05:59:31.265Z,5.43
2023-04-13T06:02:06.216Z,3.93
2023-04-13T06:04:34.878Z,4.13
2023-04-13T06:07:06.787Z,4.73
2023-04-13T06:09:35.523Z,6.43
2023-04-13T06:12:06.335Z,5.10
2023-04-13T06:14:35.541Z,3.93
2023-04-13T06:17:05.894Z,3.67
2023-04-13T06:19:36.421Z,4.90
2023-04-13T06:22:07.499Z,3.60
2023-04-13T06:24:41.394Z,3.70
2023-04-13T06:27:11.607Z,4.70
2023-04-13T06:29:44.631Z,4.20
2023-04-13T06:32:15.859Z,2.93
2023-04-13T06:34:46.445Z,5.63
2023-04-13T06:37:16.016Z,2.27
2023-04-13T06:39:47.709Z,3.13
2023-04-13T06:42:17.050Z,3.27
2023-04-13T06:44:46.798Z,1.47
2023-04-13T06:47:16.961Z,2.60
2023-04-13T06:49:44.948Z,3.13
2023-04-13T06:52:16.342Z,2.47
2023-04-13T06:54:45.226Z,3.57
2023-04-13T06:57:16.815Z,2.80
2023-04-13T06:59:48.994Z,2.73
2023-04-13T07:02:19.855Z,2.23
2023-04-13T07:04:50.937Z,2.77
2023-04-13T07:07:18.744Z,1.77
2023-04-13T07:09:49.189Z,2.30
2023-04-13T07:12:24.451Z,6.00
2023-04-13T07:14:52.104Z,2.47
2023-04-13T07:17:22.824Z,1.40
2023-04-13T07:19:53.533Z,1.70
2023-04-13T07:22:27.802Z,1.43
2023-04-13T07:24:57.940Z,2.13
2023-04-13T07:27:31.277Z,2.17
2023-04-13T07:30:06.379Z,3.03
2023-04-13T07:32:39.153Z,1.10
2023-04-13T07:35:07.701Z,4.27
2023-04-13T07:37:39.504Z,2.07
2023-04-13T07:40:09.093Z,2.97
2023-04-13T07:42:38.214Z,3.60
2023-04-13T07:45:09.418Z,1.80
2023-04-13T07:47:40.648Z,1.83
2023-04-13T07:50:12.902Z,2.63
2023-04-13T07:52:43.879Z,1.70
2023-04-13T07:55:14.721Z,1.93
2023-04-13T07:57:46.149Z,1.23
2023-04-13T08:00:18.070Z,2.20
2023-04-13T08:02:50.267Z,2.00
2023-04-13T08:05:18.380Z,1.50
2023-04-13T08:07:51.286Z,1.97
2023-04-13T08:10:22.904Z,0.83
2023-04-13T08:12:53.835Z,1.77
2023-04-13T08:15:22.830Z,1.87
2023-04-13T08:17:55.156Z,3.70
2023-04-13T08:20:26.987Z,3.03
2023-04-13T08:22:55.268Z,1.53
2023-04-13T08:25:27.428Z,3.43
2023-04-13T08:27:56.578Z,2.40
2023-04-13T08:30:28.051Z,3.37
2023-04-13T08:32:58.094Z,1.73
2023-04-13T08:35:28.989Z,2.20
2023-04-13T08:37:57.704Z,1.73
2023-04-13T08:40:30.051Z,2.20
2023-04-13T08:43:02.686Z,2.30
2023-04-13T08:45:36.019Z,3.07
2023-04-13T08:48:05.341Z,2.97
2023-04-13T08:50:34.624Z,3.37
2023-04-13T08:53:05.896Z,3.27
2023-04-13T08:55:36.960Z,2.00
2023-04-13T08:58:09.742Z,3.07
2023-04-13T09:00:39.717Z,3.50
2023-04-13T09:03:14.951Z,2.73
2023-04-13T09:05:46.328Z,3.53
2023-04-13T09:08:29.425Z,2.40
2023-04-13T09:10:59.808Z,2.13
2023-04-13T09:13:34.436Z,3.43
2023-04-13T09:16:06.243Z,1.47
2023-04-13T09:18:36.674Z,3.00
2023-04-13T09:21:07.036Z,4.03
2023-04-13T09:23:42.908Z,1.90
2023-04-13T09:26:12.456Z,4.20
2023-04-13T09:28:56.195Z,3.33
2023-04-13T09:31:28.898Z,4.17
2023-04-13T09:33:59.494Z,3.20
2023-04-13T09:36:33.035Z,2.50
2023-04-13T09:39:10.888Z,2.50
2023-04-13T09:41:41.743Z,3.03
2023-04-13T09:44:34.951Z,2.93
2023-04-13T09:47:11.508Z,2.00
2023-04-13T09:52:30.824Z,2.87
2023-04-13T09:55:00.218Z,4.43
2023-04-13T09:57:32.479Z,2.60
2023-04-13T10:00:04.573Z,2.80
2023-04-13T10:02:35.720Z,2.57
2023-04-13T10:05:16.623Z,4.47
2023-04-13T10:07:54.557Z,2.63
2023-04-13T10:10:29.104Z,2.30
2023-04-13T10:13:05.712Z,1.97
2023-04-13T10:16:12.865Z,3.00
2023-04-13T10:19:20.019Z,3.70
2023-04-13T10:21:59.668Z,4.27
2023-04-13T10:24:33.018Z,3.87
2023-04-13T10:27:27.336Z,3.03
2023-04-13T10:29:58.140Z,3.90
2023-04-13T10:32:28.094Z,2.27
2023-04-13T10:34:58.409Z,3.33
2023-04-13T10:37:29.616Z,1.93
2023-04-13T10:40:06.838Z,2.90
2023-04-13T10:45:28.482Z,3.53
2023-04-13T10:47:59.023Z,4.03
2023-04-13T10:50:30.616Z,3.40
2023-04-13T10:53:07.933Z,3.47
2023-04-13T10:55:41.257Z,2.23
2023-04-13T10:58:19.235Z,2.77
2023-04-13T11:00:51.179Z,3.97
2023-04-13T11:03:21.715Z,2.80
2023-04-13T11:05:59.221Z,2.33
2023-04-13T11:08:28.198Z,3.03
2023-04-13T11:13:52.294Z,3.03
2023-04-13T11:16:24.045Z,4.43
2023-04-13T11:19:15.971Z,1.77
2023-04-13T11:21:47.418Z,4.50
2023-04-13T11:24:34.638Z,2.37
2023-04-13T11:27:08.375Z,3.90
2023-04-13T11:32:23.119Z,4.60
2023-04-13T11:34:54.095Z,3.07
2023-04-13T11:37:28.015Z,3.93
2023-04-13T11:40:00.508Z,3.33
2023-04-13T11:42:34.705Z,2.83
2023-04-13T11:45:27.561Z,3.10
2023-04-13T11:47:58.954Z,2.90
2023-04-13T11:50:39.659Z,2.17
2023-04-13T11:53:12.312Z,3.53
2023-04-13T11:55:53.281Z,2.80
2023-04-13T11:58:28.847Z,2.37
2023-04-13T12:01:03.472Z,2.83
2023-04-13T12:03:52.922Z,6.63
2023-04-13T12:06:30.797Z,2.10
2023-04-13T12:14:54.121Z,3.40
2023-04-13T12:19:57.565Z,6.10
2023-04-13T12:22:57.791Z,4.93
2023-04-13T12:25:35.811Z,3.23
2023-04-13T12:28:09.935Z,3.93
2023-04-13T12:30:40.293Z,3.40
2023-04-13T12:33:11.564Z,4.73
2023-04-13T12:35:40.324Z,2.33
2023-04-13T12:38:11.631Z,4.70
2023-04-13T12:40:44.306Z,2.47
2023-04-13T12:43:17.008Z,3.03
2023-04-13T12:45:45.161Z,4.43
2023-04-13T12:48:15.168Z,4.07
2023-04-13T12:50:46.093Z,2.80
2023-04-13T12:53:15.757Z,2.57
2023-04-13T12:55:48.506Z,2.67
2023-04-13T12:58:22.259Z,4.00
2023-04-13T13:00:53.599Z,3.10
2023-04-13T13:03:26.462Z,4.43
2023-04-13T13:05:56.209Z,3.70
2023-04-13T13:08:28.204Z,2.33
2023-04-13T13:10:58.979Z,3.37
2023-04-13T13:13:29.216Z,2.90
2023-04-13T13:16:00.322Z,6.37
2023-04-13T13:18:46.528Z,1.73
2023-04-13T13:21:23.459Z,2.50
2023-04-13T13:23:53.804Z,2.33
2023-04-13T13:26:25.142Z,3.10
2023-04-13T13:29:01.202Z,2.47
2023-04-13T13:31:30.481Z,3.07
2023-04-13T13:34:01.819Z,2.67
2023-04-13T13:36:33.435Z,3.20
2023-04-13T13:39:02.655Z,4.63
2023-04-13T13:41:31.853Z,5.97
2023-04-13T13:44:03.002Z,2.90
2023-04-13T13:46:33.647Z,3.07
2023-04-13T13:49:05.108Z,3.47
2023-04-13T13:51:35.421Z,4.70
2023-04-13T13:54:06.159Z,2.80
2023-04-13T13:56:38.385Z,3.73
2023-04-13T13:59:11.849Z,2.70
2023-04-13T14:01:44.917Z,3.93
2023-04-13T14:04:15.493Z,2.93
2023-04-13T14:06:44.340Z,2.30
2023-04-13T14:09:15.274Z,2.17
2023-04-13T14:11:46.429Z,5.67
2023-04-13T14:14:22.501Z,2.60
2023-04-13T14:16:54.824Z,3.03
2023-04-13T14:19:32.006Z,2.57
2023-04-13T14:22:01.765Z,3.53
2023-04-13T14:24:32.010Z,3.70
2023-04-13T14:27:02.084Z,2.70
2023-04-13T14:29:32.057Z,3.20
2023-04-13T14:32:03.677Z,4.40
2023-04-13T14:34:33.936Z,2.23
2023-04-13T14:37:04.771Z,2.53
2023-04-13T14:39:37.969Z,3.07
2023-04-13T14:42:10.564Z,4.17
2023-04-13T14:44:41.119Z,2.27
2023-04-13T14:47:12.278Z,3.00
2023-04-13T14:49:43.680Z,3.23
2023-04-13T14:52:15.284Z,3.33
2023-04-13T14:54:46.509Z,3.60
2023-04-13T14:57:18.183Z,6.53
2023-04-13T14:59:53.048Z,4.57
2023-04-13T15:02:24.710Z,5.10
2023-04-13T15:04:59.861Z,4.90
2023-04-13T15:07:32.155Z,4.13
2023-04-13T15:10:03.969Z,5.40
2023-04-13T15:12:38.945Z,4.63
2023-04-13T15:15:10.516Z,4.40
2023-04-13T15:17:42.004Z,4.67
2023-04-13T15:20:13.929Z,2.13
2023-04-13T15:22:54.119Z,3.87
2023-04-13T15:25:24.585Z,6.57
2023-04-13T15:28:02.041Z,3.37
2023-04-13T15:30:33.314Z,4.13
2023-04-13T15:33:03.301Z,4.77
2023-04-13T15:35:35.682Z,3.60
2023-04-13T15:38:06.378Z,3.23
2023-04-13T15:40:39.300Z,2.27
2023-04-13T15:43:10.757Z,2.77
2023-04-13T15:45:41.374Z,6.27
2023-04-13T15:48:12.587Z,3.50
2023-04-13T15:50:41.631Z,5.20
2023-04-13T15:53:12.563Z,5.60
2023-04-13T15:55:48.288Z,7.10
2023-04-13T15:58:26.821Z,6.27
2023-04-13T16:01:07.982Z,5.43
2023-04-13T16:03:45.859Z,4.57
2023-04-13T16:06:18.012Z,6.73
2023-04-13T16:08:48.456Z,5.07
2023-04-13T16:11:22.995Z,5.60
2023-04-13T16:13:51.342Z,5.50
2023-04-13T16:16:23.018Z,7.33
2023-04-13T16:18:52.872Z,4.47
2023-04-13T16:21:29.996Z,4.87
2023-04-13T16:23:58.340Z,4.53
2023-04-13T16:26:28.626Z,5.87
2023-04-13T16:29:00.116Z,5.10
2023-04-13T16:31:29.877Z,8.90
2023-04-13T16:34:00.291Z,8.80
2023-04-13T16:36:28.283Z,11.60
2023-04-13T16:39:08.066Z,7.83
2023-04-13T16:41:41.324Z,15.70
2023-04-13T16:44:11.664Z,8.17
2023-04-13T16:46:45.054Z,10.13
2023-04-13T16:49:15.283Z,10.10
2023-04-13T16:51:44.183Z,9.70
2023-04-13T16:54:15.843Z,9.20
2023-04-13T16:56:46.912Z,11.23
2023-04-13T16:59:17.673Z,13.97
2023-04-13T17:01:48.422Z,8.87
2023-04-13T17:04:20.218Z,11.40
2023-04-13T17:06:50.922Z,10.97
2023-04-13T17:09:24.183Z,11.70
2023-04-13T17:11:54.978Z,9.03
2023-04-13T17:14:26.595Z,13.87
2023-04-13T17:16:56.574Z,14.20
2023-04-13T17:19:31.967Z,14.83
2023-04-13T17:22:01.904Z,12.00
2023-04-13T17:24:32.523Z,11.10
2023-04-13T17:27:02.842Z,13.97
2023-04-13T17:29:35.654Z,12.83
2023-04-13T17:32:04.993Z,11.47
2023-04-13T17:34:34.323Z,14.67
2023-04-13T17:37:06.147Z,13.60
2023-04-13T17:39:38.403Z,10.77
2023-04-13T17:42:10.403Z,10.97
2023-04-13T17:44:38.691Z,13.80
2023-04-13T17:47:07.210Z,12.67
2023-04-13T17:49:38.589Z,10.83
2023-04-13T17:54:53.518Z,9.37
2023-04-13T17:57:22.270Z,9.07
2023-04-13T17:59:52.917Z,9.77
2023-04-13T18:02:23.783Z,7.07
2023-04-13T18:04:54.581Z,8.07
2023-04-13T18:07:27.257Z,7.53
2023-04-13T18:09:55.273Z,9.60
2023-04-13T18:12:27.334Z,8.60
2023-04-13T18:14:56.920Z,8.67
2023-04-13T18:17:28.363Z,7.87
2023-04-13T18:20:04.783Z,10.17
2023-04-13T18:22:35.591Z,6.87
2023-04-13T18:25:05.827Z,8.73
2023-04-13T18:27:37.578Z,7.50
2023-04-13T18:30:22.549Z,9.23
2023-04-13T18:32:52.591Z,6.33
2023-04-13T18:35:25.946Z,7.50
2023-04-13T18:37:57.418Z,5.47
2023-04-13T18:41:06.931Z,6.77
2023-04-13T18:43:37.319Z,5.33
2023-04-13T18:46:08.330Z,10.03
2023-04-13T18:48:38.315Z,10.17
2023-04-13T18:51:10.038Z,6.90
2023-04-13T18:53:41.390Z,8.67
2023-04-13T18:56:11.566Z,10.20
2023-04-13T18:58:42.937Z,10.37
2023-04-13T19:01:22.854Z,8.87
2023-04-13T19:03:54.789Z,8.37
2023-04-13T19:06:30.159Z,10.47
2023-04-13T19:11:55.959Z,6.67
2023-04-13T19:14:25.501Z,9.30
2023-04-13T19:16:58.077Z,6.83
2023-04-13T19:19:30.591Z,8.07
2023-04-13T19:22:02.138Z,6.17
2023-04-13T19:24:30.082Z,5.43
2023-04-13T19:27:01.978Z,6.73
2023-04-13T19:29:34.304Z,6.63
2023-04-13T19:32:04.395Z,5.33
2023-04-13T19:34:36.098Z,5.70
2023-04-13T19:37:04.289Z,5.30
2023-04-13T19:39:38.006Z,4.80
2023-04-13T19:42:09.532Z,4.53
2023-04-13T19:44:37.889Z,4.97
2023-04-13T19:47:10.018Z,5.93
2023-04-13T19:49:47.083Z,4.97
2023-04-13T19:52:16.595Z,5.60
2023-04-13T19:54:48.877Z,4.50
2023-04-13T19:57:19.147Z,3.97
2023-04-13T19:59:52.337Z,5.37
2023-04-13T20:05:09.252Z,5.10
2023-04-13T20:07:39.463Z,3.07
2023-04-13T20:10:09.753Z,4.50
2023-04-13T20:12:38.265Z,4.90
2023-04-13T20:15:10.585Z,4.10
2023-04-13T20:17:40.426Z,4.90
2023-04-13T20:20:16.488Z,4.13
2023-04-13T20:22:47.870Z,5.80
2023-04-13T20:25:18.874Z,4.27
2023-04-13T20:27:46.552Z,4.23
2023-04-13T20:30:16.130Z,3.00
2023-04-13T20:32:43.939Z,3.77
2023-04-13T20:35:12.845Z,4.07
2023-04-13T20:37:42.484Z,14.10
2023-04-13T20:40:13.955Z,50.50
2023-04-13T20:42:50.659Z,128.13
2023-04-13T20:45:23.339Z,122.43
2023-04-13T20:47:59.103Z,145.07
2023-04-13T20:50:31.401Z,167.90
2023-04-13T20:53:03.170Z,165.23
2023-04-13T20:55:30.079Z,162.67
2023-04-13T20:58:01.957Z,158.90
2023-04-13T21:00:32.532Z,156.83
2023-04-13T21:03:05.082Z,133.10
2023-04-13T21:05:35.492Z,137.43
2023-04-13T21:08:10.283Z,119.23
2023-04-13T21:10:40.621Z,125.30
2023-04-13T21:13:13.973Z,106.70
2023-04-13T21:15:44.695Z,112.90
2023-04-13T21:18:11.757Z,103.30
2023-04-13T21:20:47.067Z,94.93
2023-04-13T21:23:17.275Z,87.03
2023-04-13T21:25:48.392Z,92.13
2023-04-13T21:28:20.780Z,82.00
2023-04-13T21:30:49.178Z,76.93
2023-04-13T21:33:20.750Z,68.63
2023-04-13T21:35:49.154Z,68.87
2023-04-13T21:38:22.528Z,59.07
2023-04-13T21:43:33.280Z,59.33
2023-04-13T21:46:03.667Z,57.40
2023-04-13T21:48:33.818Z,51.27
2023-04-13T21:51:01.036Z,42.97
2023-04-13T21:53:30.256Z,43.30
2023-04-13T21:56:00.799Z,46.30
2023-04-13T22:01:33.286Z,31.00
2023-04-13T22:04:06.159Z,29.90
2023-04-13T22:06:36.723Z,26.97
2023-04-13T22:09:06.472Z,22.63
2023-04-13T22:11:38.008Z,27.10
2023-04-13T22:14:08.574Z,19.57
2023-04-13T22:16:38.968Z,19.00
2023-04-13T22:19:09.742Z,22.80
2023-04-13T22:21:41.294Z,17.80
2023-04-13T22:24:13.085Z,16.07
2023-04-13T22:26:42.165Z,15.23
2023-04-13T22:29:14.194Z,14.20
2023-04-13T22:31:45.905Z,13.93
2023-04-13T22:34:16.294Z,10.87
2023-04-13T22:36:49.818Z,15.40
2023-04-13T22:39:21.362Z,12.17
2023-04-13T22:41:51.644Z,10.80
2023-04-13T22:44:23.661Z,12.53
2023-04-13T22:46:56.347Z,11.73
2023-04-13T22:49:29.933Z,10.60
2023-04-13T22:52:03.058Z,10.13
2023-04-13T22:54:32.001Z,11.73
2023-04-13T22:57:05.296Z,8.87
2023-04-13T22:59:35.040Z,9.23
2023-04-13T23:04:51.820Z,11.37
2023-04-13T23:07:23.018Z,9.50
2023-04-13T23:09:56.293Z,7.20
2023-04-13T23:12:29.030Z,8.37
2023-04-13T23:14:59.071Z,6.93
2023-04-13T23:17:31.196Z,6.63
2023-04-13T23:20:03.698Z,5.93
2023-04-13T23:22:35.004Z,6.53
2023-04-13T23:25:06.189Z,5.73
2023-04-13T23:27:36.587Z,5.13
2023-04-13T23:30:03.913Z,5.43
2023-04-13T23:32:37.771Z,6.77
2023-04-13T23:35:06.371Z,6.27
2023-04-13T23:37:38.974Z,3.73
2023-04-13T23:40:06.303Z,6.47
2023-04-13T23:42:38.047Z,5.13
2023-04-13T23:45:06.972Z,4.97
2023-04-13T23:47:37.991Z,3.87
2023-04-13T23:50:09.853Z,4.97
2023-04-13T23:52:37.870Z,4.80
2023-04-13T23:55:09.959Z,3.57
2023-04-13T23:57:38.896Z,4.40
